sensor_id;sensor_type;location;lat;lon;timestamp;P1;durP1;ratioP1;P2;durP2;ratioP2
7406;SDS011;3745;56.964;24.128;2023-02-28T00:00:12;2.90;;;2.57;;
7406;SDS011;3745;56.964;24.128;2023-02-28T00:02:39;4.05;;;2.53;;
7406;SDS011;3745;56.964;24.128;2023-02-28T00:05:06;3.78;;;2.33;;
7406;SDS011;3745;56.964;24.128;2023-02-28T00:07:33;2.17;;;1.97;;
7406;SDS011;3745;56.964;24.128;2023-02-28T00:10:00;4.45;;;2.30;;
7406;SDS011;3745;56.964;24.128;2023-02-28T00:12:25;4.50;;;2.35;;
7406;SDS011;3745;56.964;24.128;2023-02-28T00:14:52;3.75;;;2.05;;
7406;SDS011;3745;56.964;24.128;2023-02-28T00:17:18;4.00;;;2.28;;
7406;SDS011;3745;56.964;24.128;2023-02-28T00:19:49;2.75;;;2.38;;
7406;SDS011;3745;56.964;24.128;2023-02-28T00:22:17;3.45;;;1.80;;
7406;SDS011;3745;56.964;24.128;2023-02-28T00:24:44;4.93;;;2.30;;
7406;SDS011;3745;56.964;24.128;2023-02-28T00:27:10;2.67;;;2.00;;
7406;SDS011;3745;56.964;24.128;2023-02-28T00:29:37;3.77;;;1.83;;
7406;SDS011;3745;56.964;24.128;2023-02-28T00:32:03;1.98;;;1.88;;
7406;SDS011;3745;56.964;24.128;2023-02-28T00:34:29;3.13;;;2.30;;
7406;SDS011;3745;56.964;24.128;2023-02-28T00:36:54;3.92;;;2.35;;
7406;SDS011;3745;56.964;24.128;2023-02-28T00:39:20;2.28;;;2.00;;
7406;SDS011;3745;56.964;24.128;2023-02-28T00:41:46;2.70;;;2.47;;
7406;SDS011;3745;56.964;24.128;2023-02-28T00:44:12;3.10;;;2.13;;
7406;SDS011;3745;56.964;24.128;2023-02-28T00:46:37;3.07;;;2.33;;
7406;SDS011;3745;56.964;24.128;2023-02-28T00:49:03;2.80;;;2.40;;
7406;SDS011;3745;56.964;24.128;2023-02-28T00:51:29;6.03;;;2.00;;
7406;SDS011;3745;56.964;24.128;2023-02-28T00:53:55;3.07;;;2.10;;
7406;SDS011;3745;56.964;24.128;2023-02-28T00:56:20;2.53;;;2.30;;
7406;SDS011;3745;56.964;24.128;2023-02-28T00:58:46;1.93;;;1.80;;
7406;SDS011;3745;56.964;24.128;2023-02-28T01:01:11;2.50;;;2.30;;
7406;SDS011;3745;56.964;24.128;2023-02-28T01:03:37;2.63;;;2.07;;
7406;SDS011;3745;56.964;24.128;2023-02-28T01:06:03;3.30;;;1.70;;
7406;SDS011;3745;56.964;24.128;2023-02-28T01:08:29;3.53;;;2.20;;
7406;SDS011;3745;56.964;24.128;2023-02-28T01:10:55;4.70;;;2.47;;
7406;SDS011;3745;56.964;24.128;2023-02-28T01:13:21;4.03;;;2.30;;
7406;SDS011;3745;56.964;24.128;2023-02-28T01:15:51;2.50;;;2.30;;
7406;SDS011;3745;56.964;24.128;2023-02-28T01:18:20;2.37;;;2.17;;
7406;SDS011;3745;56.964;24.128;2023-02-28T01:20:46;2.97;;;2.33;;
7406;SDS011;3745;56.964;24.128;2023-02-28T01:23:12;3.27;;;2.23;;
7406;SDS011;3745;56.964;24.128;2023-02-28T01:25:38;5.80;;;2.40;;
7406;SDS011;3745;56.964;24.128;2023-02-28T01:28:04;2.30;;;2.20;;
7406;SDS011;3745;56.964;24.128;2023-02-28T01:30:30;2.33;;;2.13;;
7406;SDS011;3745;56.964;24.128;2023-02-28T01:32:56;3.70;;;2.40;;
7406;SDS011;3745;56.964;24.128;2023-02-28T01:35:22;2.00;;;1.90;;
7406;SDS011;3745;56.964;24.128;2023-02-28T01:37:48;2.67;;;2.10;;
7406;SDS011;3745;56.964;24.128;2023-02-28T01:40:14;2.63;;;2.43;;
7406;SDS011;3745;56.964;24.128;2023-02-28T01:42:39;2.33;;;2.13;;
7406;SDS011;3745;56.964;24.128;2023-02-28T01:47:51;2.50;;;2.30;;
7406;SDS011;3745;56.964;24.128;2023-02-28T01:50:23;2.37;;;2.17;;
7406;SDS011;3745;56.964;24.128;2023-02-28T01:52:51;3.77;;;2.53;;
7406;SDS011;3745;56.964;24.128;2023-02-28T01:55:24;2.80;;;2.30;;
7406;SDS011;3745;56.964;24.128;2023-02-28T01:57:54;2.70;;;2.10;;
7406;SDS011;3745;56.964;24.128;2023-02-28T02:00:24;1.97;;;1.87;;
7406;SDS011;3745;56.964;24.128;2023-02-28T02:02:54;2.60;;;2.13;;
7406;SDS011;3745;56.964;24.128;2023-02-28T02:05:25;2.90;;;2.30;;
7406;SDS011;3745;56.964;24.128;2023-02-28T02:07:57;2.90;;;2.10;;
7406;SDS011;3745;56.964;24.128;2023-02-28T02:13:17;1.90;;;1.80;;
7406;SDS011;3745;56.964;24.128;2023-02-28T02:21:30;2.00;;;1.90;;
7406;SDS011;3745;56.964;24.128;2023-02-28T02:35:16;2.80;;;1.70;;
7406;SDS011;3745;56.964;24.128;2023-02-28T02:43:50;4.60;;;2.37;;
7406;SDS011;3745;56.964;24.128;2023-02-28T02:48:52;2.30;;;2.10;;
7406;SDS011;3745;56.964;24.128;2023-02-28T02:51:21;3.07;;;1.90;;
7406;SDS011;3745;56.964;24.128;2023-02-28T02:54:00;4.37;;;2.30;;
7406;SDS011;3745;56.964;24.128;2023-02-28T02:56:35;2.10;;;1.90;;
7406;SDS011;3745;56.964;24.128;2023-02-28T02:59:06;3.77;;;1.90;;
7406;SDS011;3745;56.964;24.128;2023-02-28T03:01:35;4.00;;;1.80;;
7406;SDS011;3745;56.964;24.128;2023-02-28T03:04:13;2.20;;;1.90;;
7406;SDS011;3745;56.964;24.128;2023-02-28T03:06:43;4.43;;;1.93;;
7406;SDS011;3745;56.964;24.128;2023-02-28T03:09:08;1.83;;;1.73;;
7406;SDS011;3745;56.964;24.128;2023-02-28T03:11:34;2.50;;;1.52;;
7406;SDS011;3745;56.964;24.128;2023-02-28T03:24:30;1.37;;;1.17;;
7406;SDS011;3745;56.964;24.128;2023-02-28T03:27:11;4.50;;;1.73;;
7406;SDS011;3745;56.964;24.128;2023-02-28T03:30:00;1.92;;;1.75;;
7406;SDS011;3745;56.964;24.128;2023-02-28T03:35:59;1.55;;;1.45;;
7406;SDS011;3745;56.964;24.128;2023-02-28T03:38:44;1.60;;;1.50;;
7406;SDS011;3745;56.964;24.128;2023-02-28T03:41:30;2.60;;;1.43;;
7406;SDS011;3745;56.964;24.128;2023-02-28T03:44:05;3.03;;;1.60;;
7406;SDS011;3745;56.964;24.128;2023-02-28T03:46:46;2.30;;;1.50;;
7406;SDS011;3745;56.964;24.128;2023-02-28T03:49:22;5.28;;;1.88;;
7406;SDS011;3745;56.964;24.128;2023-02-28T03:51:53;5.25;;;1.83;;
7406;SDS011;3745;56.964;24.128;2023-02-28T03:54:35;5.80;;;1.40;;
7406;SDS011;3745;56.964;24.128;2023-02-28T03:57:27;1.60;;;1.50;;
7406;SDS011;3745;56.964;24.128;2023-02-28T04:00:18;2.67;;;1.60;;
7406;SDS011;3745;56.964;24.128;2023-02-28T04:02:49;1.70;;;1.60;;
7406;SDS011;3745;56.964;24.128;2023-02-28T04:05:18;1.77;;;1.60;;
7406;SDS011;3745;56.964;24.128;2023-02-28T04:07:45;3.90;;;1.70;;
7406;SDS011;3745;56.964;24.128;2023-02-28T04:10:11;1.58;;;1.50;;
7406;SDS011;3745;56.964;24.128;2023-02-28T04:12:38;2.47;;;2.08;;
7406;SDS011;3745;56.964;24.128;2023-02-28T04:15:03;1.60;;;1.50;;
7406;SDS011;3745;56.964;24.128;2023-02-28T04:17:30;3.22;;;1.60;;
7406;SDS011;3745;56.964;24.128;2023-02-28T04:19:56;1.77;;;1.40;;
7406;SDS011;3745;56.964;24.128;2023-02-28T04:22:22;3.05;;;1.50;;
7406;SDS011;3745;56.964;24.128;2023-02-28T04:24:50;1.70;;;1.60;;
7406;SDS011;3745;56.964;24.128;2023-02-28T04:27:16;1.88;;;1.77;;
7406;SDS011;3745;56.964;24.128;2023-02-28T04:29:42;2.23;;;1.93;;
7406;SDS011;3745;56.964;24.128;2023-02-28T04:32:09;3.03;;;2.17;;
7406;SDS011;3745;56.964;24.128;2023-02-28T04:34:35;3.17;;;1.90;;
7406;SDS011;3745;56.964;24.128;2023-02-28T04:37:01;1.67;;;1.60;;
7406;SDS011;3745;56.964;24.128;2023-02-28T04:39:28;2.05;;;1.90;;
7406;SDS011;3745;56.964;24.128;2023-02-28T04:41:54;2.28;;;2.08;;
7406;SDS011;3745;56.964;24.128;2023-02-28T04:44:20;2.00;;;1.63;;
7406;SDS011;3745;56.964;24.128;2023-02-28T04:46:47;3.72;;;1.60;;
7406;SDS011;3745;56.964;24.128;2023-02-28T04:49:13;2.33;;;2.13;;
7406;SDS011;3745;56.964;24.128;2023-02-28T04:51:39;2.53;;;2.30;;
7406;SDS011;3745;56.964;24.128;2023-02-28T04:54:05;4.30;;;1.83;;
7406;SDS011;3745;56.964;24.128;2023-02-28T04:56:31;5.22;;;3.20;;
7406;SDS011;3745;56.964;24.128;2023-02-28T04:58:57;2.47;;;2.22;;
7406;SDS011;3745;56.964;24.128;2023-02-28T05:01:24;2.40;;;2.20;;
7406;SDS011;3745;56.964;24.128;2023-02-28T05:03:52;4.18;;;2.50;;
7406;SDS011;3745;56.964;24.128;2023-02-28T05:06:20;4.07;;;2.60;;
7406;SDS011;3745;56.964;24.128;2023-02-28T05:08:48;2.45;;;1.88;;
7406;SDS011;3745;56.964;24.128;2023-02-28T05:11:18;6.68;;;2.33;;
7406;SDS011;3745;56.964;24.128;2023-02-28T05:13:46;3.37;;;2.57;;
7406;SDS011;3745;56.964;24.128;2023-02-28T05:16:12;2.83;;;2.53;;
7406;SDS011;3745;56.964;24.128;2023-02-28T05:18:38;3.67;;;2.83;;
7406;SDS011;3745;56.964;24.128;2023-02-28T05:21:04;2.58;;;2.10;;
7406;SDS011;3745;56.964;24.128;2023-02-28T05:23:30;2.30;;;2.10;;
7406;SDS011;3745;56.964;24.128;2023-02-28T05:25:56;2.38;;;2.17;;
7406;SDS011;3745;56.964;24.128;2023-02-28T05:28:22;3.30;;;2.33;;
7406;SDS011;3745;56.964;24.128;2023-02-28T05:30:47;3.17;;;2.63;;
7406;SDS011;3745;56.964;24.128;2023-02-28T05:33:13;3.70;;;2.25;;
7406;SDS011;3745;56.964;24.128;2023-02-28T05:35:39;3.00;;;2.70;;
7406;SDS011;3745;56.964;24.128;2023-02-28T05:38:05;2.58;;;2.38;;
7406;SDS011;3745;56.964;24.128;2023-02-28T05:40:31;3.38;;;2.97;;
7406;SDS011;3745;56.964;24.128;2023-02-28T05:42:57;3.03;;;2.83;;
7406;SDS011;3745;56.964;24.128;2023-02-28T05:45:22;3.83;;;3.10;;
7406;SDS011;3745;56.964;24.128;2023-02-28T05:47:48;3.03;;;2.85;;
7406;SDS011;3745;56.964;24.128;2023-02-28T05:50:14;2.95;;;2.75;;
7406;SDS011;3745;56.964;24.128;2023-02-28T05:52:39;3.25;;;2.97;;
7406;SDS011;3745;56.964;24.128;2023-02-28T05:55:05;3.42;;;3.03;;
7406;SDS011;3745;56.964;24.128;2023-02-28T05:57:31;3.40;;;3.10;;
7406;SDS011;3745;56.964;24.128;2023-02-28T05:59:57;3.30;;;3.00;;
7406;SDS011;3745;56.964;24.128;2023-02-28T06:02:22;3.67;;;3.38;;
7406;SDS011;3745;56.964;24.128;2023-02-28T06:04:48;3.95;;;3.05;;
7406;SDS011;3745;56.964;24.128;2023-02-28T06:07:13;10.98;;;3.72;;
7406;SDS011;3745;56.964;24.128;2023-02-28T06:09:39;5.40;;;4.13;;
7406;SDS011;3745;56.964;24.128;2023-02-28T06:12:05;4.97;;;3.42;;
7406;SDS011;3745;56.964;24.128;2023-02-28T06:14:33;3.65;;;3.30;;
7406;SDS011;3745;56.964;24.128;2023-02-28T06:16:59;4.03;;;3.63;;
7406;SDS011;3745;56.964;24.128;2023-02-28T06:19:26;5.55;;;3.95;;
7406;SDS011;3745;56.964;24.128;2023-02-28T06:21:52;3.83;;;3.53;;
7406;SDS011;3745;56.964;24.128;2023-02-28T06:24:19;5.82;;;4.10;;
7406;SDS011;3745;56.964;24.128;2023-02-28T06:26:46;4.47;;;4.07;;
7406;SDS011;3745;56.964;24.128;2023-02-28T06:29:11;5.38;;;3.92;;
7406;SDS011;3745;56.964;24.128;2023-02-28T06:31:42;4.00;;;3.60;;
7406;SDS011;3745;56.964;24.128;2023-02-28T06:34:09;4.45;;;4.05;;
7406;SDS011;3745;56.964;24.128;2023-02-28T06:36:40;4.63;;;3.67;;
7406;SDS011;3745;56.964;24.128;2023-02-28T06:39:15;10.18;;;4.78;;
7406;SDS011;3745;56.964;24.128;2023-02-28T06:41:41;5.80;;;4.60;;
7406;SDS011;3745;56.964;24.128;2023-02-28T06:44:14;8.00;;;4.95;;
7406;SDS011;3745;56.964;24.128;2023-02-28T06:46:42;5.53;;;3.65;;
7406;SDS011;3745;56.964;24.128;2023-02-28T06:49:09;4.63;;;3.85;;
7406;SDS011;3745;56.964;24.128;2023-02-28T06:51:36;8.45;;;3.88;;
7406;SDS011;3745;56.964;24.128;2023-02-28T06:54:10;5.22;;;4.30;;
7406;SDS011;3745;56.964;24.128;2023-02-28T06:56:36;6.32;;;3.63;;
7406;SDS011;3745;56.964;24.128;2023-02-28T06:59:02;7.55;;;4.25;;
7406;SDS011;3745;56.964;24.128;2023-02-28T07:01:29;7.35;;;3.88;;
7406;SDS011;3745;56.964;24.128;2023-02-28T07:03:56;5.53;;;3.63;;
7406;SDS011;3745;56.964;24.128;2023-02-28T07:06:23;6.90;;;4.63;;
7406;SDS011;3745;56.964;24.128;2023-02-28T07:08:50;5.40;;;3.72;;
7406;SDS011;3745;56.964;24.128;2023-02-28T07:11:18;7.57;;;4.43;;
7406;SDS011;3745;56.964;24.128;2023-02-28T07:13:50;7.55;;;4.60;;
7406;SDS011;3745;56.964;24.128;2023-02-28T07:16:18;5.50;;;3.90;;
7406;SDS011;3745;56.964;24.128;2023-02-28T07:18:44;8.02;;;4.10;;
7406;SDS011;3745;56.964;24.128;2023-02-28T07:21:10;4.70;;;4.05;;
7406;SDS011;3745;56.964;24.128;2023-02-28T07:23:37;3.92;;;3.60;;
7406;SDS011;3745;56.964;24.128;2023-02-28T07:26:03;8.88;;;4.18;;
7406;SDS011;3745;56.964;24.128;2023-02-28T07:28:30;5.72;;;4.32;;
7406;SDS011;3745;56.964;24.128;2023-02-28T07:30:56;4.32;;;3.40;;
7406;SDS011;3745;56.964;24.128;2023-02-28T07:33:21;5.53;;;3.58;;
7406;SDS011;3745;56.964;24.128;2023-02-28T07:35:48;5.55;;;3.78;;
7406;SDS011;3745;56.964;24.128;2023-02-28T07:38:14;4.30;;;3.47;;
7406;SDS011;3745;56.964;24.128;2023-02-28T07:40:40;4.38;;;3.95;;
7406;SDS011;3745;56.964;24.128;2023-02-28T07:43:06;7.30;;;3.40;;
7406;SDS011;3745;56.964;24.128;2023-02-28T07:45:32;3.85;;;3.30;;
7406;SDS011;3745;56.964;24.128;2023-02-28T07:47:59;5.53;;;3.70;;
7406;SDS011;3745;56.964;24.128;2023-02-28T07:50:25;4.30;;;2.90;;
7406;SDS011;3745;56.964;24.128;2023-02-28T07:52:54;6.15;;;3.40;;
7406;SDS011;3745;56.964;24.128;2023-02-28T07:55:19;3.22;;;2.92;;
7406;SDS011;3745;56.964;24.128;2023-02-28T07:57:45;3.22;;;2.35;;
7406;SDS011;3745;56.964;24.128;2023-02-28T08:00:11;3.67;;;2.92;;
7406;SDS011;3745;56.964;24.128;2023-02-28T08:02:37;3.10;;;2.90;;
7406;SDS011;3745;56.964;24.128;2023-02-28T08:05:04;5.73;;;3.17;;
7406;SDS011;3745;56.964;24.128;2023-02-28T08:07:30;2.72;;;2.53;;
7406;SDS011;3745;56.964;24.128;2023-02-28T08:09:56;4.37;;;3.30;;
7406;SDS011;3745;56.964;24.128;2023-02-28T08:12:21;4.43;;;2.17;;
7406;SDS011;3745;56.964;24.128;2023-02-28T08:14:47;6.45;;;3.08;;
7406;SDS011;3745;56.964;24.128;2023-02-28T08:17:13;3.92;;;2.95;;
7406;SDS011;3745;56.964;24.128;2023-02-28T08:19:38;3.00;;;2.53;;
7406;SDS011;3745;56.964;24.128;2023-02-28T08:22:04;3.28;;;2.97;;
7406;SDS011;3745;56.964;24.128;2023-02-28T08:24:30;5.90;;;2.88;;
7406;SDS011;3745;56.964;24.128;2023-02-28T08:26:55;2.97;;;2.60;;
7406;SDS011;3745;56.964;24.128;2023-02-28T08:29:21;3.60;;;2.38;;
7406;SDS011;3745;56.964;24.128;2023-02-28T08:31:47;2.88;;;2.67;;
7406;SDS011;3745;56.964;24.128;2023-02-28T08:34:14;6.88;;;2.97;;
7406;SDS011;3745;56.964;24.128;2023-02-28T08:36:41;2.80;;;2.60;;
7406;SDS011;3745;56.964;24.128;2023-02-28T08:39:07;3.45;;;3.15;;
7406;SDS011;3745;56.964;24.128;2023-02-28T08:41:34;3.30;;;2.97;;
7406;SDS011;3745;56.964;24.128;2023-02-28T08:44:00;4.32;;;2.90;;
7406;SDS011;3745;56.964;24.128;2023-02-28T08:46:25;4.60;;;2.90;;
7406;SDS011;3745;56.964;24.128;2023-02-28T08:48:52;3.17;;;2.58;;
7406;SDS011;3745;56.964;24.128;2023-02-28T08:51:19;5.03;;;3.28;;
7406;SDS011;3745;56.964;24.128;2023-02-28T08:53:51;4.03;;;2.65;;
7406;SDS011;3745;56.964;24.128;2023-02-28T08:56:17;2.95;;;2.67;;
7406;SDS011;3745;56.964;24.128;2023-02-28T08:58:43;8.35;;;2.70;;
7406;SDS011;3745;56.964;24.128;2023-02-28T09:01:14;4.32;;;2.95;;
7406;SDS011;3745;56.964;24.128;2023-02-28T09:03:42;4.57;;;3.00;;
7406;SDS011;3745;56.964;24.128;2023-02-28T09:06:08;5.32;;;3.10;;
7406;SDS011;3745;56.964;24.128;2023-02-28T09:08:35;3.03;;;2.50;;
7406;SDS011;3745;56.964;24.128;2023-02-28T09:11:01;3.42;;;2.28;;
7406;SDS011;3745;56.964;24.128;2023-02-28T09:13:28;3.17;;;2.97;;
7406;SDS011;3745;56.964;24.128;2023-02-28T09:15:57;5.40;;;3.08;;
7406;SDS011;3745;56.964;24.128;2023-02-28T09:18:24;3.83;;;2.50;;
7406;SDS011;3745;56.964;24.128;2023-02-28T09:20:50;3.25;;;2.95;;
7406;SDS011;3745;56.964;24.128;2023-02-28T09:23:19;4.43;;;2.50;;
7406;SDS011;3745;56.964;24.128;2023-02-28T09:25:49;3.53;;;2.83;;
7406;SDS011;3745;56.964;24.128;2023-02-28T09:28:17;2.60;;;2.40;;
7406;SDS011;3745;56.964;24.128;2023-02-28T09:30:46;2.45;;;2.25;;
7406;SDS011;3745;56.964;24.128;2023-02-28T09:33:14;2.75;;;2.38;;
7406;SDS011;3745;56.964;24.128;2023-02-28T09:35:41;4.15;;;2.22;;
7406;SDS011;3745;56.964;24.128;2023-02-28T09:38:08;3.40;;;2.15;;
7406;SDS011;3745;56.964;24.128;2023-02-28T09:40:35;3.67;;;2.00;;
7406;SDS011;3745;56.964;24.128;2023-02-28T09:43:05;3.92;;;1.80;;
7406;SDS011;3745;56.964;24.128;2023-02-28T09:45:43;2.13;;;1.50;;
7406;SDS011;3745;56.964;24.128;2023-02-28T09:48:36;2.53;;;1.90;;
7406;SDS011;3745;56.964;24.128;2023-02-28T09:53:57;3.58;;;1.80;;
7406;SDS011;3745;56.964;24.128;2023-02-28T09:56:24;3.15;;;1.80;;
7406;SDS011;3745;56.964;24.128;2023-02-28T09:59:05;2.20;;;1.85;;
7406;SDS011;3745;56.964;24.128;2023-02-28T10:02:02;4.80;;;1.63;;
7406;SDS011;3745;56.964;24.128;2023-02-28T10:07:40;1.90;;;1.50;;
7406;SDS011;3745;56.964;24.128;2023-02-28T10:10:38;3.25;;;1.73;;
7406;SDS011;3745;56.964;24.128;2023-02-28T10:13:12;3.15;;;1.40;;
7406;SDS011;3745;56.964;24.128;2023-02-28T10:15:50;1.80;;;1.70;;
7406;SDS011;3745;56.964;24.128;2023-02-28T10:18:21;2.03;;;1.52;;
7406;SDS011;3745;56.964;24.128;2023-02-28T10:20:52;3.80;;;1.80;;
7406;SDS011;3745;56.964;24.128;2023-02-28T10:23:25;1.73;;;1.63;;
7406;SDS011;3745;56.964;24.128;2023-02-28T10:26:03;1.33;;;1.33;;
7406;SDS011;3745;56.964;24.128;2023-02-28T10:28:36;1.50;;;1.40;;
7406;SDS011;3745;56.964;24.128;2023-02-28T10:31:05;1.85;;;1.63;;
7406;SDS011;3745;56.964;24.128;2023-02-28T10:33:40;2.10;;;1.60;;
7406;SDS011;3745;56.964;24.128;2023-02-28T10:36:06;2.08;;;1.75;;
7406;SDS011;3745;56.964;24.128;2023-02-28T10:38:38;1.77;;;1.33;;
7406;SDS011;3745;56.964;24.128;2023-02-28T10:41:09;1.45;;;1.35;;
7406;SDS011;3745;56.964;24.128;2023-02-28T10:44:22;2.00;;;1.25;;
7406;SDS011;3745;56.964;24.128;2023-02-28T10:46:48;1.10;;;1.10;;
7406;SDS011;3745;56.964;24.128;2023-02-28T10:49:28;1.25;;;1.15;;
7406;SDS011;3745;56.964;24.128;2023-02-28T10:51:58;2.80;;;1.50;;
7406;SDS011;3745;56.964;24.128;2023-02-28T10:54:32;1.85;;;1.50;;
7406;SDS011;3745;56.964;24.128;2023-02-28T10:57:07;2.07;;;1.60;;
7406;SDS011;3745;56.964;24.128;2023-02-28T10:59:52;1.73;;;1.48;;
7406;SDS011;3745;56.964;24.128;2023-02-28T11:02:31;3.25;;;1.58;;
7406;SDS011;3745;56.964;24.128;2023-02-28T11:04:59;1.30;;;1.20;;
7406;SDS011;3745;56.964;24.128;2023-02-28T11:07:25;4.05;;;1.40;;
7406;SDS011;3745;56.964;24.128;2023-02-28T11:09:53;0.90;;;0.90;;
7406;SDS011;3745;56.964;24.128;2023-02-28T11:12:28;1.08;;;1.08;;
7406;SDS011;3745;56.964;24.128;2023-02-28T11:15:00;1.05;;;1.05;;
7406;SDS011;3745;56.964;24.128;2023-02-28T11:17:32;0.93;;;0.93;;
7406;SDS011;3745;56.964;24.128;2023-02-28T11:20:00;1.23;;;1.10;;
7406;SDS011;3745;56.964;24.128;2023-02-28T11:22:30;1.30;;;1.30;;
7406;SDS011;3745;56.964;24.128;2023-02-28T11:25:01;1.65;;;1.25;;
7406;SDS011;3745;56.964;24.128;2023-02-28T11:29:59;4.88;;;1.48;;
7406;SDS011;3745;56.964;24.128;2023-02-28T11:32:29;1.80;;;1.70;;
7406;SDS011;3745;56.964;24.128;2023-02-28T11:35:03;1.42;;;1.20;;
7406;SDS011;3745;56.964;24.128;2023-02-28T11:37:41;1.20;;;1.20;;
7406;SDS011;3745;56.964;24.128;2023-02-28T12:08:47;1.98;;;1.40;;
7406;SDS011;3745;56.964;24.128;2023-02-28T12:14:31;1.20;;;1.13;;
7406;SDS011;3745;56.964;24.128;2023-02-28T12:19:48;1.77;;;0.98;;
7406;SDS011;3745;56.964;24.128;2023-02-28T12:22:32;1.42;;;1.10;;
7406;SDS011;3745;56.964;24.128;2023-02-28T12:28:14;1.05;;;1.05;;
7406;SDS011;3745;56.964;24.128;2023-02-28T12:31:04;1.35;;;1.25;;
7406;SDS011;3745;56.964;24.128;2023-02-28T12:33:36;0.93;;;0.90;;
7406;SDS011;3745;56.964;24.128;2023-02-28T12:36:09;1.42;;;1.00;;
7406;SDS011;3745;56.964;24.128;2023-02-28T12:38:39;0.95;;;0.95;;
7406;SDS011;3745;56.964;24.128;2023-02-28T12:41:18;1.33;;;1.23;;
7406;SDS011;3745;56.964;24.128;2023-02-28T12:43:55;1.33;;;1.23;;
7406;SDS011;3745;56.964;24.128;2023-02-28T12:46:30;1.85;;;1.38;;
7406;SDS011;3745;56.964;24.128;2023-02-28T12:49:11;2.88;;;1.38;;
7406;SDS011;3745;56.964;24.128;2023-02-28T12:51:43;2.20;;;1.10;;
7406;SDS011;3745;56.964;24.128;2023-02-28T12:59:17;1.52;;;1.30;;
7406;SDS011;3745;56.964;24.128;2023-02-28T13:02:09;1.10;;;1.10;;
7406;SDS011;3745;56.964;24.128;2023-02-28T13:10:17;1.63;;;1.52;;
7406;SDS011;3745;56.964;24.128;2023-02-28T13:12:50;2.30;;;1.60;;
7406;SDS011;3745;56.964;24.128;2023-02-28T13:15:22;1.52;;;1.42;;
7406;SDS011;3745;56.964;24.128;2023-02-28T13:17:55;2.45;;;1.88;;
7406;SDS011;3745;56.964;24.128;2023-02-28T13:20:24;2.03;;;1.90;;
7406;SDS011;3745;56.964;24.128;2023-02-28T13:22:53;1.45;;;1.35;;
7406;SDS011;3745;56.964;24.128;2023-02-28T13:28:10;1.67;;;1.58;;
7406;SDS011;3745;56.964;24.128;2023-02-28T13:33:30;1.20;;;1.20;;
7406;SDS011;3745;56.964;24.128;2023-02-28T13:36:01;1.10;;;1.10;;
7406;SDS011;3745;56.964;24.128;2023-02-28T13:38:50;1.48;;;1.40;;
7406;SDS011;3745;56.964;24.128;2023-02-28T13:51:48;1.95;;;1.27;;
7406;SDS011;3745;56.964;24.128;2023-02-28T14:05:21;1.40;;;1.30;;
7406;SDS011;3745;56.964;24.128;2023-02-28T14:07:58;2.00;;;1.33;;
7406;SDS011;3745;56.964;24.128;2023-02-28T14:10:31;1.42;;;1.33;;
7406;SDS011;3745;56.964;24.128;2023-02-28T14:16:13;1.77;;;1.10;;
7406;SDS011;3745;56.964;24.128;2023-02-28T14:19:00;2.05;;;1.10;;
7406;SDS011;3745;56.964;24.128;2023-02-28T14:21:36;1.08;;;0.95;;
7406;SDS011;3745;56.964;24.128;2023-02-28T14:24:23;2.85;;;1.00;;
7406;SDS011;3745;56.964;24.128;2023-02-28T14:30:18;1.50;;;1.10;;
7406;SDS011;3745;56.964;24.128;2023-02-28T14:38:56;2.85;;;1.00;;
7406;SDS011;3745;56.964;24.128;2023-02-28T14:41:38;1.17;;;1.17;;
7406;SDS011;3745;56.964;24.128;2023-02-28T14:44:22;0.93;;;0.88;;
7406;SDS011;3745;56.964;24.128;2023-02-28T14:46:50;1.10;;;1.10;;
7406;SDS011;3745;56.964;24.128;2023-02-28T14:49:25;1.00;;;1.00;;
7406;SDS011;3745;56.964;24.128;2023-02-28T14:52:17;1.27;;;1.17;;
7406;SDS011;3745;56.964;24.128;2023-02-28T14:54:46;2.15;;;0.93;;
7406;SDS011;3745;56.964;24.128;2023-02-28T14:57:32;1.95;;;0.80;;
7406;SDS011;3745;56.964;24.128;2023-02-28T15:00:13;1.02;;;1.02;;
7406;SDS011;3745;56.964;24.128;2023-02-28T15:02:59;2.83;;;1.13;;
7406;SDS011;3745;56.964;24.128;2023-02-28T15:05:28;1.90;;;1.23;;
7406;SDS011;3745;56.964;24.128;2023-02-28T15:10:42;1.27;;;1.17;;
7406;SDS011;3745;56.964;24.128;2023-02-28T15:13:39;1.48;;;1.10;;
7406;SDS011;3745;56.964;24.128;2023-02-28T15:16:12;1.27;;;1.17;;
7406;SDS011;3745;56.964;24.128;2023-02-28T15:18:57;2.10;;;1.10;;
7406;SDS011;3745;56.964;24.128;2023-02-28T15:21:44;1.48;;;1.15;;
7406;SDS011;3745;56.964;24.128;2023-02-28T15:24:17;2.60;;;0.98;;
7406;SDS011;3745;56.964;24.128;2023-02-28T15:26:57;1.60;;;1.00;;
7406;SDS011;3745;56.964;24.128;2023-02-28T15:29:25;1.27;;;1.23;;
7406;SDS011;3745;56.964;24.128;2023-02-28T15:32:03;3.65;;;1.63;;
7406;SDS011;3745;56.964;24.128;2023-02-28T15:36:56;1.80;;;1.70;;
7406;SDS011;3745;56.964;24.128;2023-02-28T15:39:23;2.15;;;1.85;;
7406;SDS011;3745;56.964;24.128;2023-02-28T15:41:52;1.95;;;1.50;;
7406;SDS011;3745;56.964;24.128;2023-02-28T15:44:34;1.70;;;1.08;;
7406;SDS011;3745;56.964;24.128;2023-02-28T15:47:12;1.38;;;1.27;;
7406;SDS011;3745;56.964;24.128;2023-02-28T15:50:12;3.42;;;1.40;;
7406;SDS011;3745;56.964;24.128;2023-02-28T15:52:43;0.90;;;0.90;;
7406;SDS011;3745;56.964;24.128;2023-02-28T15:55:19;1.17;;;0.80;;
7406;SDS011;3745;56.964;24.128;2023-02-28T15:57:54;0.80;;;0.80;;
7406;SDS011;3745;56.964;24.128;2023-02-28T16:00:27;1.60;;;1.00;;
7406;SDS011;3745;56.964;24.128;2023-02-28T16:02:57;3.25;;;1.00;;
7406;SDS011;3745;56.964;24.128;2023-02-28T16:05:25;3.30;;;1.25;;
7406;SDS011;3745;56.964;24.128;2023-02-28T16:08:01;2.35;;;1.00;;
7406;SDS011;3745;56.964;24.128;2023-02-28T16:10:38;5.28;;;1.10;;
7406;SDS011;3745;56.964;24.128;2023-02-28T16:13:05;2.30;;;0.90;;
7406;SDS011;3745;56.964;24.128;2023-02-28T16:15:41;0.50;;;0.50;;
7406;SDS011;3745;56.964;24.128;2023-02-28T16:20:44;2.30;;;1.30;;
7406;SDS011;3745;56.964;24.128;2023-02-28T16:23:09;5.70;;;1.20;;
7406;SDS011;3745;56.964;24.128;2023-02-28T16:25:36;1.00;;;0.90;;
7406;SDS011;3745;56.964;24.128;2023-02-28T16:28:06;2.10;;;1.00;;
7406;SDS011;3745;56.964;24.128;2023-02-28T16:30:38;2.92;;;1.05;;
7406;SDS011;3745;56.964;24.128;2023-02-28T16:33:04;1.98;;;0.75;;
7406;SDS011;3745;56.964;24.128;2023-02-28T16:35:30;0.77;;;0.57;;
7406;SDS011;3745;56.964;24.128;2023-02-28T16:37:55;0.70;;;0.70;;
7406;SDS011;3745;56.964;24.128;2023-02-28T16:40:22;1.23;;;0.95;;
7406;SDS011;3745;56.964;24.128;2023-02-28T16:42:51;1.58;;;0.90;;
7406;SDS011;3745;56.964;24.128;2023-02-28T16:45:22;1.65;;;0.75;;
7406;SDS011;3745;56.964;24.128;2023-02-28T16:47:50;1.02;;;0.98;;
7406;SDS011;3745;56.964;24.128;2023-02-28T16:52:43;2.65;;;1.20;;
7406;SDS011;3745;56.964;24.128;2023-02-28T16:55:09;4.25;;;0.98;;
7406;SDS011;3745;56.964;24.128;2023-02-28T16:57:35;1.15;;;0.90;;
7406;SDS011;3745;56.964;24.128;2023-02-28T17:00:01;0.88;;;0.88;;
7406;SDS011;3745;56.964;24.128;2023-02-28T17:02:28;2.50;;;1.08;;
7406;SDS011;3745;56.964;24.128;2023-02-28T17:04:53;2.70;;;1.10;;
7406;SDS011;3745;56.964;24.128;2023-02-28T17:07:19;1.45;;;0.90;;
7406;SDS011;3745;56.964;24.128;2023-02-28T17:09:45;1.13;;;0.63;;
7406;SDS011;3745;56.964;24.128;2023-02-28T17:12:10;3.00;;;0.80;;
7406;SDS011;3745;56.964;24.128;2023-02-28T17:14:36;3.92;;;1.10;;
7406;SDS011;3745;56.964;24.128;2023-02-28T17:17:03;0.82;;;0.82;;
7406;SDS011;3745;56.964;24.128;2023-02-28T17:19:30;4.32;;;0.88;;
7406;SDS011;3745;56.964;24.128;2023-02-28T17:21:55;3.58;;;1.40;;
7406;SDS011;3745;56.964;24.128;2023-02-28T17:24:21;3.08;;;1.30;;
7406;SDS011;3745;56.964;24.128;2023-02-28T17:26:46;4.60;;;0.68;;
7406;SDS011;3745;56.964;24.128;2023-02-28T17:29:16;1.38;;;0.93;;
7406;SDS011;3745;56.964;24.128;2023-02-28T17:31:46;0.93;;;0.80;;
7406;SDS011;3745;56.964;24.128;2023-02-28T17:34:12;3.15;;;0.93;;
7406;SDS011;3745;56.964;24.128;2023-02-28T17:36:43;3.03;;;1.50;;
7406;SDS011;3745;56.964;24.128;2023-02-28T17:39:11;2.72;;;1.35;;
7406;SDS011;3745;56.964;24.128;2023-02-28T17:41:42;1.20;;;1.10;;
7406;SDS011;3745;56.964;24.128;2023-02-28T17:44:08;0.98;;;0.90;;
7406;SDS011;3745;56.964;24.128;2023-02-28T17:46:34;3.78;;;1.00;;
7406;SDS011;3745;56.964;24.128;2023-02-28T17:49:01;3.05;;;1.02;;